Últimos artigos:
Acender um LED com a tensão da rede eléctrica
Programação do Yaesu FT-60 para os EasySats
AO-91 (RadFxSat Fox-1B) está no Ar!
CT7AFR DIY CW-Keyer
Shutdown button for the Raspberry Pi
Simple C code to dump I2C device memory
Últimas fotos:
Últimos METARs:
LPAZ 191600Z 21023KT 9999 FEW006 SCT015 BK...
LPFR 191600Z 16004KT 130V200 9999 FEW025 1...
LPHR 191600Z 24014KT 6000 FEW005 BKN007 BK...
LPLA 191600Z /////KT 9999 FEW014 19/15 Q10...
LPMA 191600Z 36008KT 320V030 9999 SCT018 S...
LPPD 191600Z 22018KT 7000 SCT004 BKN010 16...
LPPR 191600Z 31007KT CAVOK 12/06 Q1019=
LPPS 191600Z 35009KT 9999 FEW015 BKN030 16...
LPPT 191600Z 12004KT 060V170 9999 FEW030 1...
Últimos QSOs:
2019/01/18-07:31 40m TM49OTAN (PHIL)
2018/09/08-11:04 40m DJ5AV (MICHAEL)
2018/09/08-11:03 40m M3FEH (KARL)
2018/09/08-11:01 40m EB7HQE (JESUS)
2018/09/08-11:00 40m G4AFI (ANDREW)
2018/09/08-10:59 40m EA2DT (MANUEL)
  UTC
Rpi-6 CPU Temp: 39.0 °C (191631Z)
IN51oq 1636Z /////KT //// 28/9 Q1019=
15038